Time;durP1;ratioP1;P1;durP2;ratioP2;P2;SDS_P1;SDS_P2;PMS_P1;PMS_P2;Temp;Humidity;BMP_temperature;BMP_pressure;BME280_temperature;BME280_humidity;BME280_pressure;Samples;Min_cycle;Max_cycle;Signal;HPM_P1;HPM_P2
2022/06/10 00:01:59;;;;;;;2.72;2.40;;;;;;;19.03;56.00;97023.59;10017338;29;20061;-55
2022/06/10 00:07:18;;;;;;;2.53;2.33;;;;;;;19.03;55.89;97023.59;10015596;29;20489;-55
2022/06/10 00:12:37;;;;;;;2.95;2.70;;;;;;;19.02;55.79;97028.22;10012868;29;20074;-55
2022/06/10 00:17:57;;;;;;;2.97;2.78;;;;;;;19.01;55.83;97028.53;10015979;29;20046;-55
2022/06/10 00:23:16;;;;;;;3.78;2.80;;;;;;;19.00;55.61;97014.25;10013773;29;20058;-55
2022/06/10 00:28:36;;;;;;;3.35;2.63;;;;;;;18.99;55.43;97017.25;10000608;29;20486;-55
2022/06/10 00:33:56;;;;;;;3.03;2.72;;;;;;;18.99;55.53;97033.44;10013457;29;20058;-54
2022/06/10 00:39:16;;;;;;;3.78;2.75;;;;;;;18.99;55.48;97042.34;10015057;29;20058;-55
2022/06/10 00:44:43;;;;;;;3.30;2.80;;;;;;;18.97;55.29;97041.84;10024050;29;20083;-55
2022/06/10 00:50:30;;;;;;;4.45;2.83;;;;;;;18.95;55.22;97044.88;10014323;29;20058;-54
2022/06/10 00:55:52;;;;;;;2.80;2.60;;;;;;;18.95;55.27;97049.47;9999433;29;20058;-54
2022/06/10 01:01:12;;;;;;;3.55;2.63;;;;;;;18.94;55.32;97056.00;10000571;29;20129;-55
2022/06/10 01:06:31;;;;;;;3.20;2.90;;;;;;;18.94;55.22;97053.28;10011681;29;20061;-55
2022/06/10 01:12:18;;;;;;;3.50;2.95;;;;;;;18.93;55.35;97057.91;10015234;29;20058;-55
2022/06/10 01:18:11;;;;;;;3.25;2.78;;;;;;;18.93;55.19;97060.59;10015320;29;20656;-55
2022/06/10 01:23:32;;;;;;;3.05;2.72;;;;;;;18.93;55.33;97065.19;9985571;29;20065;-54
2022/06/10 01:29:20;;;;;;;3.35;2.78;;;;;;;18.93;55.38;97070.59;10015577;29;20418;-55
2022/06/10 01:34:53;;;;;;;2.83;2.60;;;;;;;18.92;55.39;97074.41;10018739;29;20517;-55
2022/06/10 01:40:36;;;;;;;3.65;2.50;;;;;;;18.91;55.47;97081.69;10006007;29;20451;-55
2022/06/10 01:46:20;;;;;;;2.78;2.58;;;;;;;18.92;55.53;97094.09;10014636;29;20064;-55
2022/06/10 01:51:49;;;;;;;3.42;2.33;;;;;;;18.90;55.51;97084.72;10018011;29;20061;-56
2022/06/10 01:57:19;;;;;;;2.85;2.58;;;;;;;18.90;55.62;97095.53;10021776;29;20058;-54
2022/06/10 02:02:42;;;;;;;3.53;2.40;;;;;;;18.89;55.58;97104.72;10006772;29;20398;-55
2022/06/10 02:08:14;;;;;;;3.00;2.70;;;;;;;18.88;55.45;97100.44;10018048;29;20057;-55
2022/06/10 02:13:52;;;;;;;2.83;2.63;;;;;;;18.88;55.37;97111.25;10020626;29;20087;-55
2022/06/10 02:19:41;;;;;;;2.90;2.70;;;;;;;18.87;55.29;97107.72;10018266;29;20445;-55
2022/06/10 02:25:11;;;;;;;2.90;2.60;;;;;;;18.86;55.18;97105.34;10017824;29;20058;-55
2022/06/10 02:30:38;;;;;;;2.80;2.60;;;;;;;18.84;55.16;97110.28;9990798;29;20063;-55
2022/06/10 02:36:07;;;;;;;3.05;2.70;;;;;;;18.82;55.03;97115.16;9999940;29;20066;-55
2022/06/10 02:41:41;;;;;;;2.80;2.60;;;;;;;18.82;54.89;97120.56;10020645;29;20065;-55
2022/06/10 02:47:13;;;;;;;2.95;2.65;;;;;;;18.81;54.87;97138.66;10002613;29;20926;-55
2022/06/10 02:52:34;;;;;;;3.63;2.80;;;;;;;18.81;54.92;97140.56;10002664;29;20058;-55
2022/06/10 03:03:46;;;;;;;2.90;2.58;;;;;;;18.78;54.94;97150.84;10015373;29;20406;-55
2022/06/10 03:09:19;;;;;;;3.55;2.80;;;;;;;18.78;54.93;97164.34;9998603;29;20057;-55
2022/06/10 03:14:53;;;;;;;4.93;2.28;;;;;;;18.76;54.93;97171.97;10003394;29;20122;-54
2022/06/10 03:20:27;;;;;;;2.55;2.22;;;;;;;18.76;55.12;97177.38;10017085;29;20065;-55
2022/06/10 03:25:52;;;;;;;3.10;2.35;;;;;;;18.77;55.07;97180.84;10015619;29;20065;-55
2022/06/10 03:31:31;;;;;;;2.78;2.38;;;;;;;18.77;55.12;97202.44;10002715;29;20062;-54
2022/06/10 03:36:52;;;;;;;2.78;2.38;;;;;;;18.75;55.34;97200.03;9998316;29;20394;-54
2022/06/10 03:42:13;;;;;;;2.80;2.60;;;;;;;18.74;55.16;97206.56;10003882;29;20512;-55
2022/06/10 03:47:33;;;;;;;2.60;2.40;;;;;;;18.75;55.27;97210.06;10016609;29;20517;-53
2022/06/10 03:52:53;;;;;;;2.50;2.30;;;;;;;18.76;55.36;97234.03;10003887;29;20069;-55
2022/06/10 03:58:13;;;;;;;2.33;2.13;;;;;;;18.76;55.42;97236.75;10013964;29;20459;-54
2022/06/10 04:03:32;;;;;;;2.60;2.35;;;;;;;18.75;55.58;97239.75;10027745;29;20095;-55
2022/06/10 04:08:52;;;;;;;2.85;2.40;;;;;;;18.74;55.58;97228.16;10015640;29;20497;-55
2022/06/10 04:14:12;;;;;;;3.95;2.00;;;;;;;18.75;55.58;97240.53;10022419;29;20054;-55
2022/06/10 04:19:31;;;;;;;2.10;1.90;;;;;;;18.75;55.79;97237.84;10028812;29;20054;-55
2022/06/10 04:24:51;;;;;;;2.38;2.10;;;;;;;18.76;55.77;97250.25;10015904;29;20066;-55
2022/06/10 04:30:23;;;;;;;2.78;2.58;;;;;;;18.76;55.77;97252.16;10014696;29;20061;-55
2022/06/10 04:35:44;;;;;;;3.08;2.35;;;;;;;18.77;55.84;97254.50;10027243;29;20058;-55
2022/06/10 04:41:06;;;;;;;2.60;2.20;;;;;;;18.78;55.77;97264.22;10012576;29;20054;-55
2022/06/10 04:46:31;;;;;;;4.10;2.17;;;;;;;18.78;55.66;97256.13;10029609;29;20053;-53
2022/06/10 04:51:51;;;;;;;2.60;2.40;;;;;;;18.77;55.95;97265.31;10013018;29;20057;-55
2022/06/10 04:57:10;;;;;;;2.20;2.00;;;;;;;18.78;55.91;97275.03;10013239;29;20517;-55
2022/06/10 05:02:30;;;;;;;2.33;2.10;;;;;;;18.78;55.93;97277.72;10015550;29;20059;-53
2022/06/10 05:07:49;;;;;;;2.40;2.20;;;;;;;18.78;55.93;97295.81;10013855;29;20061;-55
2022/06/10 05:13:08;;;;;;;2.10;1.90;;;;;;;18.77;55.92;97292.31;10013452;29;20054;-55
2022/06/10 05:18:28;;;;;;;2.78;1.90;;;;;;;18.78;56.17;97307.41;10026518;29;20054;-55
2022/06/10 05:23:47;;;;;;;2.88;2.05;;;;;;;18.77;56.07;97311.19;10024072;29;20058;-55
2022/06/10 05:29:07;;;;;;;3.17;1.90;;;;;;;18.77;56.17;97307.72;10025518;29;20057;-55
2022/06/10 05:34:45;;;;;;;2.60;2.40;;;;;;;18.78;56.24;97320.13;10032536;29;20045;-55
2022/06/10 05:40:05;;;;;;;3.30;2.03;;;;;;;18.78;56.25;97322.81;10021757;29;20425;-55
2022/06/10 05:45:25;;;;;;;3.22;1.90;;;;;;;18.78;56.18;97331.69;10023899;29;20058;-55
2022/06/10 05:50:45;;;;;;;2.30;2.08;;;;;;;18.76;56.19;97333.91;10020431;29;20455;-55
2022/06/10 05:56:04;;;;;;;1.90;1.80;;;;;;;18.78;56.32;97342.50;10019365;29;20073;-55
2022/06/10 06:01:23;;;;;;;1.65;1.55;;;;;;;18.77;56.21;97346.28;10018301;29;20505;-55
2022/06/10 06:06:43;;;;;;;2.25;1.98;;;;;;;18.78;56.24;97353.28;10032320;29;20058;-55
2022/06/10 06:12:03;;;;;;;2.50;2.10;;;;;;;18.80;56.22;97357.59;10019014;29;20054;-55
2022/06/10 06:17:23;;;;;;;2.03;1.83;;;;;;;18.78;56.17;97353.28;10018751;29;20066;-53
2022/06/10 06:22:43;;;;;;;1.92;1.73;;;;;;;18.80;56.43;97360.31;10031051;29;20062;-54
2022/06/10 06:28:02;;;;;;;2.65;2.03;;;;;;;18.79;56.38;97367.59;10016545;29;20065;-55
2022/06/10 06:33:22;;;;;;;2.53;1.90;;;;;;;18.81;56.41;97378.13;10022520;29;20136;-55
2022/06/10 06:38:42;;;;;;;1.80;1.70;;;;;;;18.80;56.28;97379.19;10022644;29;20073;-55
2022/06/10 06:44:04;;;;;;;2.05;1.88;;;;;;;18.80;56.46;97381.91;10022459;29;20081;-55
2022/06/10 06:49:26;;;;;;;2.00;1.80;;;;;;;18.81;56.50;97373.50;10031762;29;20083;-55
2022/06/10 06:54:45;;;;;;;2.20;2.00;;;;;;;18.81;56.47;97372.72;10022098;29;20054;-55
2022/06/10 07:00:06;;;;;;;2.25;2.05;;;;;;;18.80;56.38;97385.41;10021346;29;20062;-55
2022/06/10 07:05:25;;;;;;;2.80;1.95;;;;;;;18.80;56.53;97388.13;10021832;29;20068;-54
2022/06/10 07:10:45;;;;;;;2.42;2.00;;;;;;;18.81;56.46;97386.22;10030058;29;20134;-54
2022/06/10 07:16:06;;;;;;;3.17;1.90;;;;;;;18.82;56.42;97395.88;10020799;29;20061;-55
2022/06/10 07:21:27;;;;;;;2.35;1.90;;;;;;;18.83;56.64;97397.50;10012817;29;20110;-55
2022/06/10 07:26:47;;;;;;;2.20;2.00;;;;;;;18.82;56.52;97412.09;10030875;29;20063;-55
2022/06/10 07:32:07;;;;;;;1.80;1.70;;;;;;;18.82;56.55;97417.47;10016213;29;20489;-55
2022/06/10 07:37:26;;;;;;;2.17;1.90;;;;;;;18.83;56.71;97408.28;10023174;29;20069;-55
2022/06/10 07:42:45;;;;;;;2.10;1.98;;;;;;;18.84;56.75;97409.91;10000026;29;20499;-55
2022/06/10 07:48:06;;;;;;;2.25;1.88;;;;;;;18.83;56.78;97406.38;10019052;29;20061;-55
2022/06/10 07:53:25;;;;;;;2.20;2.00;;;;;;;18.83;56.71;97416.41;10027982;29;20053;-55
2022/06/10 07:58:45;;;;;;;1.95;1.80;;;;;;;18.84;56.75;97413.41;10018021;29;20065;-55
2022/06/10 08:04:08;;;;;;;2.10;1.90;;;;;;;18.85;56.78;97414.19;10018355;29;20428;-55
2022/06/10 08:09:28;;;;;;;2.05;1.90;;;;;;;18.85;56.83;97419.59;10012191;29;20406;-55
2022/06/10 08:14:47;;;;;;;2.05;1.92;;;;;;;18.87;57.01;97425.47;10018578;29;20069;-55
2022/06/10 08:20:09;;;;;;;1.85;1.75;;;;;;;18.86;56.81;97427.38;10033142;29;20045;-55
2022/06/10 08:25:28;;;;;;;2.10;1.90;;;;;;;18.85;56.91;97433.88;10009151;29;20061;-55
2022/06/10 08:30:47;;;;;;;2.40;2.20;;;;;;;18.86;56.69;97432.00;10012337;29;20541;-55
2022/06/10 08:36:07;;;;;;;2.63;2.10;;;;;;;18.85;56.77;97441.97;10012248;29;20164;-55
2022/06/10 08:41:52;;;;;;;2.38;2.17;;;;;;;18.85;56.85;97433.09;10024454;29;20053;-55
2022/06/10 08:47:23;;;;;;;2.40;2.20;;;;;;;18.88;56.61;97437.88;9996867;29;20541;-55
2022/06/10 08:52:48;;;;;;;3.53;2.10;;;;;;;18.88;56.68;97448.69;10015910;29;20054;-55
2022/06/10 08:58:14;;;;;;;3.30;1.92;;;;;;;18.88;56.67;97446.00;10009071;29;20088;-55
2022/06/10 09:03:41;;;;;;;2.42;1.92;;;;;;;18.88;56.58;97462.19;10004333;29;20050;-55
2022/06/10 09:09:03;;;;;;;3.05;1.83;;;;;;;18.88;56.69;97460.28;10017679;29;20061;-55
2022/06/10 09:14:25;;;;;;;2.55;1.70;;;;;;;18.88;56.61;97454.09;10016856;29;20058;-55
2022/06/10 09:19:55;;;;;;;2.22;1.60;;;;;;;18.89;56.56;97461.06;10018825;29;20111;-55
2022/06/10 09:25:30;;;;;;;2.08;1.88;;;;;;;18.91;56.39;97470.44;10019559;29;20493;-54
2022/06/10 09:30:56;;;;;;;2.20;1.98;;;;;;;18.94;55.70;97480.66;10001822;29;20430;-56
2022/06/10 09:36:20;;;;;;;1.65;1.55;;;;;;;18.95;55.76;97470.66;9990071;29;20570;-55
2022/06/10 09:41:49;;;;;;;1.63;1.52;;;;;;;18.96;55.92;97472.25;10010474;29;20602;-54
2022/06/10 09:47:34;;;;;;;2.20;1.45;;;;;;;19.00;56.17;97480.56;9989138;29;20738;-53
2022/06/10 09:52:58;;;;;;;1.98;1.70;;;;;;;19.00;56.35;97489.44;10013630;29;20099;-54
2022/06/10 09:58:46;;;;;;;1.83;1.73;;;;;;;18.98;56.36;97480.84;10007023;29;20062;-55
2022/06/10 10:04:46;;;;;;;1.88;1.70;;;;;;;18.98;56.51;97480.84;10017505;29;20065;-55
2022/06/10 10:10:23;;;;;;;1.60;1.50;;;;;;;19.00;56.49;97484.06;9976152;29;20058;-53
2022/06/10 10:15:49;;;;;;;2.00;1.55;;;;;;;19.00;56.41;97486.75;10015455;29;20062;-55
2022/06/10 10:21:13;;;;;;;1.50;1.40;;;;;;;19.00;56.36;97483.25;10016701;29;20064;-55
2022/06/10 10:26:37;;;;;;;1.70;1.60;;;;;;;19.01;56.45;97474.03;10020579;29;20057;-53
2022/06/10 10:31:59;;;;;;;2.97;1.50;;;;;;;19.03;56.26;97490.75;10002032;29;20057;-52
2022/06/10 10:37:27;;;;;;;1.50;1.38;;;;;;;19.01;56.21;97482.94;10020785;29;20482;-52
2022/06/10 10:42:51;;;;;;;2.97;1.50;;;;;;;19.02;55.98;97484.53;10009021;29;20058;-55
2022/06/10 10:48:18;;;;;;;1.73;1.60;;;;;;;19.02;55.94;97481.06;10022454;29;20062;-55
2022/06/10 10:53:44;;;;;;;2.75;1.40;;;;;;;19.03;55.51;97491.53;10018406;29;20467;-55
2022/06/10 10:59:04;;;;;;;1.83;1.42;;;;;;;19.05;55.20;97489.34;10026479;29;20050;-55
2022/06/10 11:04:34;;;;;;;2.75;1.50;;;;;;;19.06;54.86;97482.84;10016349;29;20062;-54
2022/06/10 11:10:08;;;;;;;1.48;1.38;;;;;;;19.08;54.32;97485.25;10031535;29;20054;-55
2022/06/10 11:15:30;;;;;;;3.05;1.40;;;;;;;19.09;54.60;97484.94;9996755;29;20049;-55
2022/06/10 11:20:50;;;;;;;1.50;1.30;;;;;;;19.12;54.36;97487.00;10018105;29;20061;-55
2022/06/10 11:26:14;;;;;;;1.27;1.10;;;;;;;19.12;54.33;97481.63;10020829;29;20066;-55
2022/06/10 11:31:45;;;;;;;2.45;1.17;;;;;;;19.12;54.15;97468.09;10020613;29;20070;-55
2022/06/10 11:37:26;;;;;;;1.52;1.30;;;;;;;19.16;54.07;97474.50;10014328;29;20092;-55
2022/06/10 11:42:51;;;;;;;2.25;1.17;;;;;;;19.16;53.88;97474.50;9998108;29;20054;-54
2022/06/10 11:48:28;;;;;;;1.35;1.20;;;;;;;19.16;53.68;97471.78;10006300;29;20118;-55
2022/06/10 11:53:58;;;;;;;2.40;1.20;;;;;;;19.20;53.47;97465.78;10015697;29;20062;-55
2022/06/10 12:05:09;;;;;;;1.27;1.17;;;;;;;19.21;53.80;97445.75;10008097;29;20058;-55
2022/06/10 12:10:39;;;;;;;2.55;1.60;;;;;;;19.22;53.47;97445.47;10001920;29;20106;-55
2022/06/10 12:15:58;;;;;;;2.63;1.20;;;;;;;19.24;53.27;97448.66;10001240;29;20516;-54
2022/06/10 12:21:23;;;;;;;1.50;1.40;;;;;;;19.26;53.31;97443.75;10003316;29;20060;-55
2022/06/10 12:26:47;;;;;;;1.92;1.20;;;;;;;19.30;53.28;97439.31;10002789;29;20087;-55
2022/06/10 12:32:22;;;;;;;2.85;1.40;;;;;;;19.29;53.17;97439.66;10018225;29;20442;-55
2022/06/10 12:37:49;;;;;;;1.20;1.10;;;;;;;19.29;53.16;97442.34;9999952;29;20050;-55
2022/06/10 12:43:08;;;;;;;2.40;1.40;;;;;;;19.30;53.19;97438.53;10011788;29;20054;-55
2022/06/10 12:48:31;;;;;;;1.23;1.13;;;;;;;19.29;53.41;97443.16;10006102;29;20066;-55
2022/06/10 12:54:03;;;;;;;2.17;1.40;;;;;;;19.26;53.21;97427.53;10029618;29;20076;-55
2022/06/10 12:59:25;;;;;;;2.13;1.30;;;;;;;19.32;52.61;97433.63;10010185;29;20065;-54
2022/06/10 13:04:59;;;;;;;1.42;1.10;;;;;;;19.33;52.47;97421.72;10027500;29;20054;-55
2022/06/10 13:10:34;;;;;;;1.80;1.17;;;;;;;19.37;52.24;97422.72;9997253;29;20401;-54
2022/06/10 13:15:56;;;;;;;3.33;1.52;;;;;;;19.38;52.03;97421.59;10015868;29;20453;-55
2022/06/10 13:21:16;;;;;;;1.60;0.95;;;;;;;19.39;51.76;97417.78;10003588;29;20458;-54
2022/06/10 13:26:36;;;;;;;0.98;0.95;;;;;;;19.40;51.77;97408.56;10010601;29;20502;-55
2022/06/10 13:31:57;;;;;;;2.10;1.10;;;;;;;19.43;51.60;97420.69;10017905;29;20054;-53
2022/06/10 13:37:18;;;;;;;1.83;1.08;;;;;;;19.43;51.43;97410.66;10023153;29;20058;-55
2022/06/10 13:42:39;;;;;;;2.33;1.10;;;;;;;19.46;51.41;97410.03;10020824;29;20066;-55
2022/06/10 13:48:02;;;;;;;1.13;1.02;;;;;;;19.45;51.31;97407.66;10016418;29;20102;-55
2022/06/10 13:53:26;;;;;;;2.10;1.33;;;;;;;19.47;51.54;97411.63;10034405;29;20058;-55
2022/06/10 13:58:52;;;;;;;3.95;1.30;;;;;;;19.47;51.90;97400.84;10023051;29;20402;-55
2022/06/10 14:04:24;;;;;;;1.77;1.20;;;;;;;19.47;51.88;97402.75;10034391;29;20080;-55
2022/06/10 14:09:46;;;;;;;1.20;1.10;;;;;;;19.53;51.60;97405.00;10018937;29;20061;-55
2022/06/10 14:15:17;;;;;;;1.48;1.02;;;;;;;19.56;51.37;97408.97;10018942;29;20053;-55
2022/06/10 14:20:36;;;;;;;3.97;1.35;;;;;;;19.59;51.25;97397.56;10033813;29;20482;-55
2022/06/10 14:26:25;;;;;;;1.60;1.05;;;;;;;19.60;51.46;97390.25;10017796;29;20066;-55
2022/06/10 14:31:59;;;;;;;1.33;1.15;;;;;;;19.66;51.28;97395.22;10025886;29;20054;-55
2022/06/10 14:37:23;;;;;;;1.48;1.10;;;;;;;19.68;51.23;97394.88;10007602;29;20065;-54
2022/06/10 14:42:48;;;;;;;3.03;1.50;;;;;;;19.73;51.04;97394.81;10009985;29;20053;-55
2022/06/10 14:48:14;;;;;;;1.35;1.00;;;;;;;19.71;51.20;97389.69;9999730;29;20082;-55
2022/06/10 14:53:34;;;;;;;2.33;1.30;;;;;;;19.78;51.01;97383.88;10012827;29;20061;-55
2022/06/10 14:58:54;;;;;;;1.15;1.05;;;;;;;19.91;50.50;97382.94;10029816;29;20054;-55
2022/06/10 15:04:14;;;;;;;1.52;1.40;;;;;;;19.91;51.49;97388.34;10015827;29;20069;-55
2022/06/10 15:09:38;;;;;;;1.48;1.23;;;;;;;19.96;51.03;97376.63;10017801;29;20073;-55
2022/06/10 15:14:58;;;;;;;1.40;1.30;;;;;;;19.99;50.97;97373.28;10005465;29;20054;-55
2022/06/10 15:20:18;;;;;;;2.42;1.10;;;;;;;20.00;50.90;97368.69;10016949;29;20057;-54
2022/06/10 15:25:39;;;;;;;1.30;1.20;;;;;;;20.02;50.39;97355.63;10004400;29;20068;-55
2022/06/10 15:30:58;;;;;;;1.20;1.10;;;;;;;20.03;50.57;97368.03;10008579;29;20058;-55
2022/06/10 15:41:59;;;;;;;1.17;1.02;;;;;;;19.99;50.66;97372.47;10019510;29;20054;-55
2022/06/10 15:47:19;;;;;;;1.33;1.23;;;;;;;19.89;50.93;97368.16;10017843;29;20069;-54
2022/06/10 15:52:38;;;;;;;1.88;1.30;;;;;;;19.78;51.24;97359.53;10015161;29;20058;-55
2022/06/10 15:57:57;;;;;;;1.38;1.25;;;;;;;19.73;51.58;97365.06;10017198;29;20115;-55
2022/06/10 16:03:18;;;;;;;1.70;1.38;;;;;;;19.75;51.25;97362.84;10014416;29;20567;-55
2022/06/10 16:08:37;;;;;;;1.92;1.25;;;;;;;19.84;51.17;97355.56;10014609;29;20073;-55
2022/06/10 16:13:57;;;;;;;1.20;1.10;;;;;;;19.90;50.52;97362.44;10013873;29;20414;-55
2022/06/10 16:19:16;;;;;;;1.75;1.20;;;;;;;19.95;50.73;97346.06;10014132;29;20140;-55
2022/06/10 16:24:36;;;;;;;1.65;1.25;;;;;;;19.98;50.53;97354.69;10014229;29;20115;-55
2022/06/10 16:29:57;;;;;;;3.00;1.20;;;;;;;20.03;50.19;97358.03;10014683;29;20062;-55
2022/06/10 16:35:24;;;;;;;1.75;1.10;;;;;;;20.04;50.38;97362.31;10018796;29;20084;-55
2022/06/10 16:40:46;;;;;;;1.38;1.27;;;;;;;20.03;50.36;97362.63;10012212;29;20135;-54
2022/06/10 16:46:15;;;;;;;1.52;1.20;;;;;;;20.05;49.83;97358.53;10016182;29;20061;-55
2022/06/10 16:51:34;;;;;;;1.67;1.30;;;;;;;20.08;50.14;97354.38;10016080;29;20140;-55
2022/06/10 16:56:55;;;;;;;2.95;1.30;;;;;;;20.10;50.80;97357.56;10013315;29;20065;-55
2022/06/10 17:02:33;;;;;;;2.90;1.52;;;;;;;20.05;51.83;97353.09;10014878;29;20107;-55
2022/06/10 17:07:52;;;;;;;2.67;1.40;;;;;;;20.04;51.69;97356.13;10009440;29;20387;-55
2022/06/10 17:13:14;;;;;;;1.45;1.33;;;;;;;19.99;52.25;97362.44;10025405;29;20106;-55
2022/06/10 17:18:33;;;;;;;1.20;1.10;;;;;;;19.97;52.31;97356.56;10001364;29;20430;-55
2022/06/10 17:23:53;;;;;;;2.55;1.20;;;;;;;19.99;52.17;97359.75;10006763;29;20635;-55
2022/06/10 17:29:31;;;;;;;1.10;1.00;;;;;;;20.02;52.18;97359.13;10009060;29;20110;-55
2022/06/10 17:34:52;;;;;;;1.33;1.23;;;;;;;20.00;52.11;97363.28;10008161;29;20058;-55
2022/06/10 17:40:12;;;;;;;1.60;1.15;;;;;;;19.95;52.26;97367.72;10010378;29;20066;-55
2022/06/10 17:45:32;;;;;;;1.08;1.00;;;;;;;19.91;52.31;97369.41;10020945;29;20057;-55
2022/06/10 17:50:51;;;;;;;1.23;1.13;;;;;;;19.84;52.63;97360.97;10011928;29;20069;-56
2022/06/10 17:56:11;;;;;;;1.42;1.33;;;;;;;19.80;52.85;97367.31;10010312;29;20213;-55
2022/06/10 18:01:32;;;;;;;1.65;1.13;;;;;;;19.75;53.14;97360.13;10000172;29;20087;-55
2022/06/10 18:06:51;;;;;;;2.13;1.10;;;;;;;19.70;53.28;97369.16;10011937;29;20421;-55
2022/06/10 18:12:30;;;;;;;1.83;1.42;;;;;;;19.66;53.51;97376.31;10009370;29;20053;-55
2022/06/10 18:17:52;;;;;;;2.70;1.58;;;;;;;19.66;53.62;97378.19;10012106;29;20126;-55
2022/06/10 18:23:19;;;;;;;2.17;1.20;;;;;;;19.64;53.66;97377.69;10028494;29;20054;-55
2022/06/10 18:28:38;;;;;;;2.10;1.55;;;;;;;19.62;53.61;97390.72;10020279;29;20064;-55
2022/06/10 18:34:01;;;;;;;1.98;1.38;;;;;;;19.60;53.59;97395.66;10003458;29;20078;-55
2022/06/10 18:39:22;;;;;;;1.70;1.30;;;;;;;19.59;53.67;97407.56;10008287;29;20064;-55
2022/06/10 18:44:42;;;;;;;1.38;1.20;;;;;;;19.58;53.60;97411.38;10015492;29;20439;-55
2022/06/10 18:50:11;;;;;;;1.65;1.33;;;;;;;19.56;53.62;97412.50;10017190;29;20098;-55
2022/06/10 18:55:33;;;;;;;2.10;1.50;;;;;;;19.54;53.58;97417.41;10002941;29;20413;-55
2022/06/10 19:00:55;;;;;;;1.35;1.23;;;;;;;19.52;53.45;97411.53;10012506;29;20530;-55
2022/06/10 19:06:16;;;;;;;1.65;1.30;;;;;;;19.51;53.40;97422.63;10022109;29;20064;-55
2022/06/10 19:11:35;;;;;;;1.70;1.48;;;;;;;19.48;53.26;97426.75;10018274;29;20054;-55
2022/06/10 19:17:02;;;;;;;3.30;1.70;;;;;;;19.45;53.27;97434.69;10013389;29;20066;-55
2022/06/10 19:22:28;;;;;;;4.20;1.52;;;;;;;19.43;53.02;97442.28;10012137;29;20061;-55
2022/06/10 19:27:49;;;;;;;1.42;1.30;;;;;;;19.41;52.92;97450.69;10010595;29;20061;-55
2022/06/10 19:33:12;;;;;;;2.42;1.50;;;;;;;19.38;52.87;97456.72;10011673;29;20478;-55
2022/06/10 19:38:31;;;;;;;2.35;1.40;;;;;;;19.36;52.56;97469.72;9992070;29;20148;-55
2022/06/10 19:49:29;;;;;;;1.60;1.23;;;;;;;19.30;52.55;97466.34;10011755;29;20110;-55
2022/06/10 19:54:51;;;;;;;2.20;1.40;;;;;;;19.26;52.27;97464.56;9996613;29;20774;-55
2022/06/10 20:00:13;;;;;;;1.98;1.25;;;;;;;19.24;52.15;97472.19;10014593;29;20061;-55
2022/06/10 20:05:34;;;;;;;1.30;1.20;;;;;;;19.22;52.31;97474.38;10016534;29;20049;-55
2022/06/10 20:10:55;;;;;;;2.03;1.40;;;;;;;19.18;52.39;97471.50;10014608;29;20072;-55
2022/06/10 20:16:19;;;;;;;1.88;1.40;;;;;;;19.15;52.25;97478.31;10012679;29;20066;-55
2022/06/10 20:21:39;;;;;;;2.17;1.35;;;;;;;19.13;52.50;97479.69;9995368;29;20054;-55
2022/06/10 20:26:58;;;;;;;2.90;1.40;;;;;;;19.10;52.28;97481.13;10009296;29;20062;-55
2022/06/10 20:32:25;;;;;;;2.42;1.60;;;;;;;19.07;52.51;97476.34;10010011;29;20100;-55
2022/06/10 20:37:45;;;;;;;1.65;1.13;;;;;;;19.05;52.32;97483.94;10010296;29;20057;-55
2022/06/10 20:43:06;;;;;;;3.35;1.48;;;;;;;19.02;52.73;97481.84;10007845;29;20065;-55
2022/06/10 20:48:31;;;;;;;2.38;1.55;;;;;;;19.00;52.67;97478.66;10007709;29;20058;-54
2022/06/10 20:53:50;;;;;;;1.65;1.33;;;;;;;18.95;52.75;97476.88;9993511;29;20061;-55
2022/06/10 20:59:10;;;;;;;1.60;1.23;;;;;;;18.88;52.65;97481.09;10007099;29;20070;-55
2022/06/10 21:10:11;;;;;;;1.88;1.30;;;;;;;18.81;52.83;97475.28;10013256;29;20069;-54
2022/06/10 21:15:34;;;;;;;2.42;1.30;;;;;;;18.83;53.03;97483.88;10011609;29;20050;-55
2022/06/10 21:20:57;;;;;;;1.63;1.30;;;;;;;18.88;53.01;97478.38;10003210;29;20050;-55
2022/06/10 21:26:20;;;;;;;1.73;1.27;;;;;;;18.93;52.91;97479.06;9967433;29;20062;-55
2022/06/10 21:31:44;;;;;;;1.60;1.15;;;;;;;18.95;52.98;97486.84;9990926;29;20119;-55
2022/06/10 21:37:06;;;;;;;2.55;1.20;;;;;;;18.98;53.07;97488.16;9982856;29;20073;-55
2022/06/10 21:48:12;;;;;;;1.65;1.23;;;;;;;19.00;53.11;97494.06;9995807;29;20082;-55
2022/06/10 21:53:37;;;;;;;2.92;1.50;;;;;;;18.99;53.07;97495.16;9986911;29;20058;-55
2022/06/10 21:58:59;;;;;;;2.00;1.17;;;;;;;18.98;52.93;97497.06;10003896;29;20058;-55
2022/06/10 22:04:22;;;;;;;2.03;1.33;;;;;;;18.98;53.15;97496.25;9988585;29;20517;-55
2022/06/10 22:09:50;;;;;;;3.28;1.17;;;;;;;18.99;53.51;97497.84;9983025;29;20061;-55
2022/06/10 22:15:13;;;;;;;2.65;1.30;;;;;;;18.99;53.49;97489.75;9998518;29;20066;-54
2022/06/10 22:20:36;;;;;;;1.13;1.02;;;;;;;18.99;53.39;97495.16;10015817;29;20065;-55
2022/06/10 22:25:57;;;;;;;2.78;1.30;;;;;;;18.98;53.56;97497.06;10022298;29;20096;-55
2022/06/10 22:31:16;;;;;;;1.88;1.30;;;;;;;18.98;53.80;97494.34;10014278;29;20054;-54
2022/06/10 22:36:36;;;;;;;1.45;1.15;;;;;;;18.97;53.61;97495.44;10016039;29;20054;-55
2022/06/10 22:41:55;;;;;;;2.55;1.20;;;;;;;18.95;53.78;97487.66;10028689;29;20541;-55
2022/06/10 22:47:25;;;;;;;1.45;1.20;;;;;;;18.95;53.81;97490.38;10018936;29;20069;-55
2022/06/10 22:52:48;;;;;;;2.03;1.23;;;;;;;18.95;53.76;97498.47;10029695;29;20054;-55
2022/06/10 22:58:14;;;;;;;2.05;1.30;;;;;;;18.93;53.55;97489.06;10019187;29;20066;-55
2022/06/10 23:03:38;;;;;;;1.35;1.20;;;;;;;18.91;53.33;97489.34;10026232;29;20054;-55
2022/06/10 23:14:59;;;;;;;1.63;1.40;;;;;;;18.88;53.18;97495.38;10006729;29;20488;-53
2022/06/10 23:20:24;;;;;;;1.40;1.20;;;;;;;18.84;52.96;97491.69;10013238;29;20066;-55
2022/06/10 23:25:45;;;;;;;2.22;1.23;;;;;;;18.83;52.93;97489.28;10017168;29;20058;-55
2022/06/10 23:31:10;;;;;;;1.40;1.15;;;;;;;18.80;52.80;97479.06;10016831;29;20414;-55
2022/06/10 23:36:37;;;;;;;2.72;1.40;;;;;;;18.78;52.81;97474.75;10015419;29;20057;-55
2022/06/10 23:42:03;;;;;;;1.48;1.20;;;;;;;18.75;52.75;97478.06;10027654;29;20058;-54
2022/06/10 23:53:13;;;;;;;2.35;1.35;;;;;;;18.71;52.65;97460.06;10013345;29;20069;-55
2022/06/10 23:58:43;;;;;;;1.63;1.35;;;;;;;18.71;52.83;97460.88;9999904;29;20058;-56
